Wetterstation Vordersexau
Wetterdaten: Woche 31.01.11 - 06.02.11 (KW5)
Datum Zeit Temp. A. Feuchte A. Luftdruck Regen Wind Richtung Taupunkt Windchill Windben
31.01.2011 00:00 -4,6 C 89 % 1017,2 hPa 0,0 l/m 0,0 km/h O-NO -6,1 C -4,6 C 0,0 km/h
31.01.2011 01:00 -3,7 C 88 % 1017,4 hPa 0,0 l/m 0,0 km/h SO -5,4 C -3,7 C 0,0 km/h
31.01.2011 02:00 -3,7 C 87 % 1017,6 hPa 0,0 l/m 0,0 km/h SO -5,5 C -3,7 C 0,0 km/h
31.01.2011 03:00 -3,5 C 86 % 1017,5 hPa 0,0 l/m 0,0 km/h O-SO -5,5 C -3,5 C 0,0 km/h
31.01.2011 04:00 -3,5 C 85 % 1017,6 hPa 0,0 l/m 8,4 km/h SO -5,6 C -5,7 C 4,7 km/h
31.01.2011 05:00 -3,8 C 84 % 1018,3 hPa 0,0 l/m 9,7 km/h SO -6,1 C -7,4 C 5,4 km/h
31.01.2011 06:00 -3,6 C 83 % 1018,6 hPa 0,0 l/m 3,2 km/h S -6,1 C -3,6 C 1,8 km/h
31.01.2011 07:00 -3,4 C 83 % 1019,1 hPa 0,0 l/m 0,0 km/h W -5,9 C -3,4 C 0,0 km/h
31.01.2011 08:00 -3,5 C 87 % 1019,7 hPa 0,0 l/m 0,0 km/h W -5,3 C -3,5 C 0,0 km/h
31.01.2011 09:00 -2,9 C 87 % 1020,0 hPa 0,0 l/m 0,0 km/h O-SO -4,8 C -2,9 C 0,0 km/h
31.01.2011 10:00 -2,2 C 82 % 1020,5 hPa 0,0 l/m 0,0 km/h W -4,8 C -2,2 C 0,0 km/h
31.01.2011 11:00 -1,5 C 84 % 1020,8 hPa 0,0 l/m 0,0 km/h NW -3,8 C -1,5 C 0,0 km/h
31.01.2011 12:00 -0,9 C 82 % 1020,6 hPa 0,0 l/m 0,0 km/h NW -3,6 C -0,9 C 0,0 km/h
31.01.2011 13:00 -0,5 C 81 % 1020,5 hPa 0,0 l/m 0,0 km/h NW -3,3 C -0,5 C 0,0 km/h
31.01.2011 14:00 -0,1 C 78 % 1020,1 hPa 0,0 l/m 0,0 km/h N-NW -3,5 C -0,1 C 0,0 km/h
31.01.2011 15:00 -0,4 C 77 % 1020,4 hPa 0,0 l/m 0,0 km/h W-NW -3,9 C -0,4 C 0,0 km/h
31.01.2011 16:00 -1,1 C 80 % 1020,5 hPa 0,0 l/m 0,0 km/h W-NW -4,1 C -1,1 C 0,0 km/h
31.01.2011 17:00 -1,5 C 82 % 1021,2 hPa 0,0 l/m 0,0 km/h W-NW -4,2 C -1,5 C 0,0 km/h
31.01.2011 18:00 -1,6 C 82 % 1021,7 hPa 0,0 l/m 0,0 km/h W-NW -4,3 C -1,6 C 0,0 km/h
31.01.2011 19:00 -1,6 C 83 % 1022,0 hPa 0,0 l/m 0,0 km/h W-SW -4,1 C -1,6 C 0,0 km/h
31.01.2011 20:00 -1,8 C 84 % 1022,5 hPa 0,0 l/m 0,0 km/h W -4,1 C -1,8 C 0,0 km/h
31.01.2011 21:00 -1,8 C 84 % 1022,9 hPa 0,0 l/m 0,0 km/h N-NW -4,1 C -1,8 C 0,0 km/h
31.01.2011 22:00 -1,9 C 84 % 1022,9 hPa 0,0 l/m 0,0 km/h W-NW -4,2 C -1,9 C 0,0 km/h
31.01.2011 23:00 -1,9 C 85 % 1023,1 hPa 0,0 l/m 0,0 km/h W-NW -4,1 C -1,9 C 0,0 km/h
01.02.2011 00:00 -2,1 C 85 % 1023,3 hPa 0,0 l/m 0,0 km/h N-NW -4,3 C -2,1 C 0,0 km/h
01.02.2011 01:00 -2,2 C 85 % 1023,3 hPa 0,0 l/m 0,0 km/h W-NW -4,4 C -2,2 C 0,0 km/h
01.02.2011 02:00 -2,4 C 86 % 1023,2 hPa 0,0 l/m 0,0 km/h W-NW -4,4 C -2,4 C 0,0 km/h
01.02.2011 03:00 -2,5 C 87 % 1023,3 hPa 0,0 l/m 0,0 km/h W-NW -4,4 C -2,5 C 0,0 km/h
01.02.2011 04:00 -2,6 C 87 % 1023,0 hPa 0,0 l/m 0,0 km/h W-NW -4,5 C -2,6 C 0,0 km/h
01.02.2011 05:00 -2,5 C 87 % 1023,2 hPa 0,0 l/m 0,0 km/h NO -4,4 C -2,5 C 0,0 km/h
01.02.2011 06:00 -2,5 C 86 % 1023,9 hPa 0,0 l/m 0,0 km/h N-NW -4,5 C -2,5 C 0,0 km/h
01.02.2011 07:00 -2,4 C 86 % 1024,0 hPa 0,0 l/m 0,0 km/h SO -4,4 C -2,4 C 0,0 km/h
01.02.2011 08:00 -2,4 C 86 % 1024,4 hPa 0,0 l/m 0,0 km/h O-NO -4,4 C -2,4 C 0,0 km/h
01.02.2011 09:00 -2,3 C 86 % 1024,9 hPa 0,0 l/m 0,0 km/h NW -4,3 C -2,3 C 0,0 km/h
01.02.2011 10:00 -2,1 C 85 % 1025,4 hPa 0,0 l/m 0,0 km/h W-NW -4,3 C -2,1 C 0,0 km/h
01.02.2011 11:00 -1,7 C 84 % 1025,8 hPa 0,0 l/m 0,0 km/h W -4,0 C -1,7 C 0,0 km/h
01.02.2011 12:00 -1,6 C 83 % 1025,8 hPa 0,0 l/m 0,0 km/h NO -4,1 C -1,6 C 0,0 km/h
01.02.2011 13:00 -1,2 C 82 % 1025,3 hPa 0,0 l/m 0,0 km/h W -3,9 C -1,2 C 0,0 km/h
01.02.2011 14:00 -1,3 C 82 % 1025,2 hPa 0,0 l/m 2,6 km/h W-NW -4,0 C -1,3 C 1,4 km/h
01.02.2011 15:00 -1,2 C 82 % 1025,2 hPa 0,0 l/m 0,0 km/h W-NW -3,9 C -1,2 C 0,0 km/h
01.02.2011 16:00 -1,5 C 82 % 1025,5 hPa 0,0 l/m 0,0 km/h W -4,2 C -1,5 C 0,0 km/h
01.02.2011 17:00 -1,7 C 83 % 1025,8 hPa 0,0 l/m 0,0 km/h S -4,2 C -1,7 C 0,0 km/h
01.02.2011 18:00 -1,9 C 83 % 1026,3 hPa 0,0 l/m 0,0 km/h S -4,4 C -1,9 C 0,0 km/h
01.02.2011 19:00 -1,9 C 83 % 1026,8 hPa 0,0 l/m 0,0 km/h W -4,4 C -1,9 C 0,0 km/h
01.02.2011 20:00 -1,9 C 83 % 1026,9 hPa 0,0 l/m 0,0 km/h W -4,4 C -1,9 C 0,0 km/h
01.02.2011 21:00 -1,9 C 84 % 1027,2 hPa 0,0 l/m 0,0 km/h S-SW -4,2 C -1,9 C 0,0 km/h
01.02.2011 22:00 -1,9 C 82 % 1027,6 hPa 0,0 l/m 1,9 km/h S-SO -4,6 C -1,9 C 1,1 km/h
01.02.2011 23:00 -1,9 C 82 % 1027,9 hPa 0,0 l/m 0,0 km/h SO -4,6 C -1,9 C 0,0 km/h
02.02.2011 00:00 -2,1 C 82 % 1028,3 hPa 0,0 l/m 1,3 km/h SO -4,7 C -2,1 C 0,7 km/h
02.02.2011 01:00 -2,1 C 83 % 1028,4 hPa 0,0 l/m 0,6 km/h S-SO -4,6 C -2,1 C 0,4 km/h
02.02.2011 02:00 -2,1 C 82 % 1028,5 hPa 0,0 l/m 2,6 km/h S-SO -4,7 C -2,1 C 1,4 km/h
02.02.2011 03:00 -2,4 C 82 % 1028,7 hPa 0,0 l/m 1,9 km/h S-SO -5,0 C -2,4 C 1,1 km/h
02.02.2011 04:00 -2,4 C 82 % 1028,8 hPa 0,0 l/m 1,9 km/h S-SO -5,0 C -2,4 C 1,1 km/h
02.02.2011 05:00 -2,4 C 82 % 1029,1 hPa 0,0 l/m 5,2 km/h S -5,0 C -2,4 C 2,9 km/h
02.02.2011 06:00 -2,5 C 82 % 1029,6 hPa 0,0 l/m 5,8 km/h W-SW -5,1 C -2,5 C 3,2 km/h
02.02.2011 07:00 -2,5 C 82 % 1029,8 hPa 0,0 l/m 0,0 km/h W -5,1 C -2,5 C 0,0 km/h
02.02.2011 08:00 -2,6 C 83 % 1030,3 hPa 0,0 l/m 0,0 km/h SW -5,1 C -2,6 C 0,0 km/h
02.02.2011 09:00 -1,6 C 81 % 1030,4 hPa 0,0 l/m 0,0 km/h N -4,4 C -1,6 C 0,0 km/h
02.02.2011 10:00 -0,4 C 78 % 1030,6 hPa 0,0 l/m 0,0 km/h W -3,8 C -0,4 C 0,0 km/h
02.02.2011 11:00 0,4 C 74 % 1030,5 hPa 0,0 l/m 0,0 km/h N-NW -3,7 C 0,4 C 0,0 km/h
02.02.2011 12:00 3,2 C 69 % 1029,9 hPa 0,0 l/m 3,9 km/h S-SW -1,9 C 3,2 C 2,2 km/h
02.02.2011 13:00 3,9 C 66 % 1029,2 hPa 0,0 l/m 1,3 km/h W -1,9 C 3,9 C 0,7 km/h
02.02.2011 14:00 2,7 C 69 % 1028,8 hPa 0,0 l/m 0,0 km/h N-NW -2,4 C 2,7 C 0,0 km/h
02.02.2011 15:00 2,2 C 71 % 1029,1 hPa 0,0 l/m 0,0 km/h W-NW -2,5 C 2,2 C 0,0 km/h
02.02.2011 16:00 1,2 C 74 % 1029,1 hPa 0,0 l/m 0,0 km/h NW -2,9 C 1,2 C 0,0 km/h
02.02.2011 17:00 0,4 C 77 % 1029,1 hPa 0,0 l/m 0,0 km/h W-NW -3,1 C 0,4 C 0,0 km/h
02.02.2011 18:00 -0,1 C 81 % 1029,0 hPa 0,0 l/m 0,0 km/h W-NW -3,0 C -0,1 C 0,0 km/h
02.02.2011 19:00 -0,5 C 81 % 1028,7 hPa 0,0 l/m 0,0 km/h W-NW -3,3 C -0,5 C 0,0 km/h
02.02.2011 20:00 -0,5 C 83 % 1028,7 hPa 0,0 l/m 0,0 km/h W-NW -3,0 C -0,5 C 0,0 km/h
02.02.2011 21:00 -0,7 C 84 % 1028,8 hPa 0,0 l/m 0,0 km/h W-NW -3,1 C -0,7 C 0,0 km/h
02.02.2011 22:00 -0,6 C 85 % 1028,7 hPa 0,0 l/m 0,0 km/h SW -2,8 C -0,6 C 0,0 km/h
02.02.2011 23:00 -0,4 C 85 % 1028,7 hPa 0,0 l/m 0,0 km/h S -2,6 C -0,4 C 0,0 km/h
03.02.2011 00:00 -0,3 C 85 % 1028,6 hPa 0,0 l/m 0,0 km/h S -2,5 C -0,3 C 0,0 km/h
03.02.2011 01:00 -0,7 C 85 % 1028,7 hPa 0,0 l/m 0,0 km/h S-SO -2,9 C -0,7 C 0,0 km/h
03.02.2011 02:00 -1,1 C 86 % 1028,7 hPa 0,0 l/m 0,0 km/h S-SO -3,1 C -1,1 C 0,0 km/h
03.02.2011 03:00 -3,3 C 88 % 1028,3 hPa 0,0 l/m 0,0 km/h S-SO -5,0 C -3,3 C 0,0 km/h
03.02.2011 04:00 -3,4 C 88 % 1028,3 hPa 0,0 l/m 0,0 km/h S -5,1 C -3,4 C 0,0 km/h
03.02.2011 05:00 -2,1 C 89 % 1028,7 hPa 0,0 l/m 0,0 km/h W-NW -3,7 C -2,1 C 0,0 km/h
03.02.2011 06:00 -1,6 C 88 % 1028,1 hPa 0,0 l/m 0,0 km/h W-SW -3,3 C -1,6 C 0,0 km/h
03.02.2011 07:00 -1,6 C 87 % 1028,3 hPa 0,0 l/m 3,2 km/h W-SW -3,5 C -1,6 C 1,8 km/h
03.02.2011 08:00 -1,5 C 88 % 1028,3 hPa 0,0 l/m 0,0 km/h W -3,2 C -1,5 C 0,0 km/h
03.02.2011 09:00 -1,1 C 88 % 1028,8 hPa 0,0 l/m 7,8 km/h W-SW -2,8 C -2,6 C 4,3 km/h
03.02.2011 10:00 -0,6 C 87 % 1029,4 hPa 0,0 l/m 6,5 km/h S-SO -2,5 C -0,7 C 3,6 km/h
03.02.2011 11:00 -0,2 C 86 % 1029,5 hPa 0,0 l/m 13,0 km/h W-SW -2,3 C -5,9 C 7,2 km/h
03.02.2011 12:00 1,6 C 83 % 1028,7 hPa 0,0 l/m 0,0 km/h NO -1,0 C 1,6 C 0,0 km/h
03.02.2011 13:00 1,8 C 82 % 1028,4 hPa 0,0 l/m 0,0 km/h SO -0,9 C 1,8 C 0,0 km/h
03.02.2011 14:00 2,1 C 84 % 1027,9 hPa 0,4 l/m 0,0 km/h O-NO -0,3 C 2,1 C 0,0 km/h
03.02.2011 15:00 1,6 C 85 % 1028,0 hPa 0,0 l/m 0,0 km/h O-SO -0,6 C 1,6 C 0,0 km/h
03.02.2011 16:00 1,8 C 87 % 1028,1 hPa 0,0 l/m 0,0 km/h N-NO -0,1 C 1,8 C 0,0 km/h
03.02.2011 17:00 1,7 C 88 % 1028,1 hPa 0,0 l/m 0,0 km/h SO -0,1 C 1,7 C 0,0 km/h
03.02.2011 18:00 1,4 C 88 % 1028,9 hPa 0,0 l/m 0,0 km/h SO -0,4 C 1,4 C 0,0 km/h
03.02.2011 19:00 1,6 C 88 % 1029,1 hPa 0,0 l/m 0,0 km/h O-NO -0,2 C 1,6 C 0,0 km/h
03.02.2011 20:00 1,6 C 88 % 1029,1 hPa 0,0 l/m 0,0 km/h O-NO -0,2 C 1,6 C 0,0 km/h
03.02.2011 21:00 1,6 C 88 % 1029,1 hPa 0,0 l/m 0,0 km/h O-SO -0,2 C 1,6 C 0,0 km/h
03.02.2011 22:00 1,4 C 89 % 1028,8 hPa 0,0 l/m 0,0 km/h O-SO -0,2 C 1,4 C 0,0 km/h
03.02.2011 23:00 1,6 C 88 % 1029,0 hPa 0,0 l/m 0,0 km/h SO -0,2 C 1,6 C 0,0 km/h
04.02.2011 00:00 1,0 C 88 % 1028,6 hPa 0,0 l/m 0,0 km/h SO -0,8 C 1,0 C 0,0 km/h
04.02.2011 01:00 1,3 C 88 % 1028,5 hPa 0,0 l/m 0,0 km/h SO -0,5 C 1,3 C 0,0 km/h
04.02.2011 02:00 1,3 C 88 % 1028,3 hPa 0,0 l/m 0,0 km/h SO -0,5 C 1,3 C 0,0 km/h
04.02.2011 03:00 1,3 C 88 % 1027,8 hPa 0,0 l/m 0,0 km/h SO -0,5 C 1,3 C 0,0 km/h
04.02.2011 04:00 1,8 C 88 % 1027,4 hPa 0,0 l/m 0,0 km/h W 0,0 C 1,8 C 0,0 km/h
04.02.2011 05:00 2,9 C 87 % 1027,5 hPa 0,0 l/m 0,0 km/h W 1,0 C 2,9 C 0,0 km/h
04.02.2011 06:00 4,6 C 88 % 1027,9 hPa 0,0 l/m 22,0 km/h S 2,8 C -4,5 C 12,2 km/h
04.02.2011 07:00 4,5 C 88 % 1027,9 hPa 0,0 l/m 23,3 km/h W-SW 2,7 C -5,1 C 13,0 km/h
04.02.2011 08:00 5,5 C 88 % 1028,7 hPa 0,0 l/m 14,9 km/h W-SW 3,7 C -0,3 C 8,3 km/h
04.02.2011 09:00 6,8 C 85 % 1028,7 hPa 0,0 l/m 22,0 km/h W-NW 4,5 C -1,6 C 12,2 km/h
04.02.2011 10:00 7,9 C 82 % 1028,6 hPa 0,0 l/m 48,6 km/h W 5,0 C -5,4 C 27,0 km/h
04.02.2011 11:00 9,3 C 78 % 1029,4 hPa 0,0 l/m 16,8 km/h W-SW 5,7 C 3,5 C 9,4 km/h
04.02.2011 12:00 9,8 C 76 % 1029,1 hPa 0,0 l/m 23,3 km/h W-SW 5,8 C 2,0 C 13,0 km/h
04.02.2011 13:00 10,4 C 70 % 1028,3 hPa 0,0 l/m 46,7 km/h W-SW 5,2 C -1,4 C 25,9 km/h
04.02.2011 14:00 10,1 C 73 % 1028,0 hPa 0,0 l/m 23,3 km/h W-SW 5,5 C 2,4 C 13,0 km/h
04.02.2011 15:00 8,7 C 75 % 1028,4 hPa 0,0 l/m 26,6 km/h W-SW 4,5 C -0,4 C 14,8 km/h
04.02.2011 16:00 8,8 C 74 % 1028,3 hPa 0,0 l/m 29,2 km/h SW 4,4 C -0,8 C 16,2 km/h
04.02.2011 17:00 7,8 C 73 % 1028,7 hPa 0,0 l/m 20,1 km/h S-SW 3,3 C 0,4 C 11,2 km/h
04.02.2011 18:00 7,5 C 73 % 1028,6 hPa 0,0 l/m 47,3 km/h W 3,0 C -5,8 C 26,3 km/h
04.02.2011 19:00 7,4 C 75 % 1028,4 hPa 0,0 l/m 28,5 km/h W-SW 3,3 C -2,6 C 15,8 km/h
04.02.2011 20:00 7,6 C 75 % 1029,0 hPa 0,0 l/m 21,4 km/h S-SW 3,5 C -0,3 C 11,9 km/h
04.02.2011 21:00 8,1 C 74 % 1028,3 hPa 0,0 l/m 22,0 km/h W-SW 3,8 C 0,2 C 12,2 km/h
04.02.2011 22:00 8,1 C 74 % 1028,2 hPa 0,0 l/m 20,7 km/h SW 3,8 C 0,6 C 11,5 km/h
04.02.2011 23:00 8,1 C 75 % 1028,4 hPa 0,0 l/m 38,9 km/h SW 3,9 C -3,7 C 21,6 km/h
05.02.2011 00:00 8,1 C 76 % 1029,1 hPa 0,0 l/m 36,9 km/h SW 4,1 C -3,4 C 20,5 km/h
05.02.2011 01:00 8,1 C 76 % 1028,5 hPa 0,0 l/m 18,8 km/h SW 4,1 C 1,3 C 10,4 km/h
05.02.2011 02:00 7,9 C 76 % 1028,7 hPa 0,0 l/m 23,3 km/h W-SW 3,9 C -0,5 C 13,0 km/h
05.02.2011 03:00 7,9 C 77 % 1028,5 hPa 0,0 l/m 29,2 km/h W-SW 4,1 C -2,1 C 16,2 km/h
05.02.2011 04:00 7,6 C 79 % 1028,6 hPa 0,0 l/m 22,7 km/h SW 4,2 C -0,7 C 12,6 km/h
05.02.2011 05:00 7,8 C 78 % 1028,8 hPa 0,0 l/m 40,8 km/h W-SW 4,2 C -4,5 C 22,7 km/h
05.02.2011 06:00 7,5 C 79 % 1028,9 hPa 0,0 l/m 22,0 km/h W-SW 4,1 C -0,6 C 12,2 km/h
05.02.2011 07:00 7,6 C 79 % 1029,1 hPa 0,0 l/m 24,0 km/h SW 4,2 C -1,1 C 13,3 km/h
05.02.2011 08:00 7,6 C 78 % 1029,7 hPa 0,0 l/m 24,0 km/h W-SW 4,0 C -1,1 C 13,3 km/h
05.02.2011 09:00 8,3 C 76 % 1029,7 hPa 0,0 l/m 33,0 km/h SW 4,3 C -2,4 C 18,4 km/h
05.02.2011 10:00 9,1 C 72 % 1029,8 hPa 0,0 l/m 19,4 km/h W-SW 4,3 C 2,3 C 10,8 km/h
05.02.2011 11:00 11,4 C 65 % 1029,9 hPa 0,0 l/m 20,1 km/h SW 5,1 C 5,1 C 11,2 km/h
05.02.2011 12:00 11,8 C 66 % 1029,1 hPa 0,0 l/m 29,8 km/h W-SW 5,7 C 3,2 C 16,6 km/h
05.02.2011 13:00 10,6 C 68 % 1028,4 hPa 0,0 l/m 33,7 km/h W-SW 4,9 C 0,8 C 18,7 km/h
05.02.2011 14:00 11,8 C 65 % 1028,1 hPa 0,0 l/m 23,3 km/h W-SW 5,4 C 4,7 C 13,0 km/h
05.02.2011 15:00 12,5 C 62 % 1027,2 hPa 0,0 l/m 59,6 km/h W-SW 5,4 C 0,8 C 33,1 km/h
05.02.2011 16:00 12,2 C 62 % 1027,5 hPa 0,0 l/m 24,0 km/h W-SW 5,1 C 5,1 C 13,3 km/h
05.02.2011 17:00 9,0 C 70 % 1027,6 hPa 0,0 l/m 7,1 km/h SW 3,8 C 8,5 C 4,0 km/h
05.02.2011 18:00 7,8 C 74 % 1027,9 hPa 0,0 l/m 23,3 km/h W-SW 3,5 C -0,6 C 13,0 km/h
05.02.2011 19:00 7,9 C 75 % 1028,3 hPa 0,0 l/m 14,3 km/h SW 3,7 C 2,9 C 7,9 km/h
05.02.2011 20:00 7,8 C 76 % 1028,6 hPa 0,0 l/m 20,1 km/h SW 3,8 C 0,4 C 11,2 km/h
05.02.2011 21:00 7,1 C 78 % 1029,1 hPa 0,0 l/m 18,8 km/h SW 3,5 C -0,0 C 10,4 km/h
05.02.2011 22:00 6,9 C 79 % 1029,2 hPa 0,0 l/m 20,7 km/h W 3,5 C -1,0 C 11,5 km/h
05.02.2011 23:00 5,9 C 81 % 1029,6 hPa 0,0 l/m 0,0 km/h NO 2,9 C 5,9 C 0,0 km/h
06.02.2011 00:00 3,3 C 86 % 1029,4 hPa 0,0 l/m 0,0 km/h NO 1,2 C 3,3 C 0,0 km/h
06.02.2011 01:00 5,8 C 84 % 1029,4 hPa 0,0 l/m 5,8 km/h NO 3,3 C 5,8 C 3,2 km/h
06.02.2011 02:00 2,1 C 87 % 1029,5 hPa 0,0 l/m 1,9 km/h NO 0,2 C 2,1 C 1,1 km/h
06.02.2011 03:00 1,3 C 88 % 1029,2 hPa 0,0 l/m 3,2 km/h O-SO -0,5 C 1,3 C 1,8 km/h
06.02.2011 04:00 0,4 C 88 % 1028,8 hPa 0,0 l/m 0,0 km/h N-NO -1,3 C 0,4 C 0,0 km/h
06.02.2011 05:00 0,2 C 88 % 1028,8 hPa 0,0 l/m 0,0 km/h O-NO -1,5 C 0,2 C 0,0 km/h
06.02.2011 06:00 0,6 C 88 % 1028,8 hPa 0,0 l/m 0,0 km/h SO -1,2 C 0,6 C 0,0 km/h
06.02.2011 07:00 0,5 C 88 % 1028,8 hPa 0,0 l/m 0,0 km/h SO -1,3 C 0,5 C 0,0 km/h
06.02.2011 08:00 0,7 C 87 % 1028,8 hPa 0,0 l/m 0,0 km/h SO -1,2 C 0,7 C 0,0 km/h
06.02.2011 09:00 6,5 C 88 % 1028,6 hPa 0,0 l/m 0,0 km/h SO 4,7 C 6,5 C 0,0 km/h
06.02.2011 10:00 13,5 C 72 % 1028,4 hPa 0,0 l/m 0,0 km/h W 8,6 C 13,5 C 0,0 km/h
06.02.2011 11:00 14,2 C 62 % 1028,4 hPa 0,0 l/m 17,5 km/h SW 7,0 C 9,4 C 9,7 km/h
06.02.2011 12:00 14,1 C 62 % 1027,2 hPa 0,0 l/m 18,8 km/h W 6,9 C 8,9 C 10,4 km/h
06.02.2011 13:00 14,9 C 58 % 1026,3 hPa 0,0 l/m 4,5 km/h W 6,7 C 14,9 C 2,5 km/h
06.02.2011 14:00 16,6 C 51 % 1025,7 hPa 0,0 l/m 1,3 km/h W 6,4 C 16,6 C 0,7 km/h
06.02.2011 15:00 18,3 C 46 % 1025,2 hPa 0,0 l/m 0,6 km/h W 6,5 C 18,3 C 0,4 km/h
06.02.2011 16:00 17,4 C 45 % 1025,0 hPa 0,0 l/m 0,0 km/h S 5,3 C 17,4 C 0,0 km/h
06.02.2011 17:00 10,7 C 61 % 1024,8 hPa 0,0 l/m 0,0 km/h O-SO 3,5 C 10,7 C 0,0 km/h
06.02.2011 18:00 5,6 C 74 % 1024,9 hPa 0,0 l/m 0,0 km/h SO 1,3 C 5,6 C 0,0 km/h
06.02.2011 19:00 3,2 C 81 % 1025,2 hPa 0,0 l/m 0,0 km/h O-NO 0,3 C 3,2 C 0,0 km/h
06.02.2011 20:00 1,8 C 85 % 1025,3 hPa 0,0 l/m 0,0 km/h O -0,4 C 1,8 C 0,0 km/h
06.02.2011 21:00 0,6 C 87 % 1025,1 hPa 0,0 l/m 0,0 km/h NO -1,3 C 0,6 C 0,0 km/h
06.02.2011 22:00 0,1 C 88 % 1025,2 hPa 0,0 l/m 0,0 km/h O-NO -1,6 C 0,1 C 0,0 km/h
06.02.2011 23:00 -0,2 C 88 % 1025,0 hPa 0,0 l/m 0,0 km/h O-NO -1,9 C -0,2 C 0,0 km/h
Min-Datum _ 31.01.11 06.02.11 31.01.11 - 31.01.11 - 31.01.11 31.01.11 31.01.11
_ Min-Zeit 00:30 16:30 00:30 - 00:30 - 00:30 05:30 00:30
Minimum _ -4,6 C 45 % 1017,2 hPa - 0,0 km/h - -6,1 C -7,4 C 0,0 km/h
Max-Datum _ 06.02.11 31.01.11 02.02.11 03.02.11 05.02.11 - 06.02.11 06.02.11 05.02.11
_ Max-Zeit 15:30 00:30 10:30 14:30 15:30 - 10:30 15:30 15:30
Maximum _ 18,3 C 89 % 1030,6 hPa 0,4 l/m 59,6 km/h
W-SW
- 8,6 C 18,3 C 33,1 km/h
W-SW
Durchschnitt _ 2,4 C 81 % 1026,8 hPa #0,4 l/m 7,3 km/h W-SW -0,7 C 0,2 C 4,0 km/h
www.sexauwetter.de